Time;durP1;ratioP1;P1;durP2;ratioP2;P2;SDS_P1;SDS_P2;PMS_P1;PMS_P2;Temp;Humidity;BMP_temperature;BMP_pressure;BME280_temperature;BME280_humidity;BME280_pressure;Samples;Min_cycle;Max_cycle;Signal;HPM_P1;HPM_P2
2022/03/12 00:01:24;;;;;;;42.60;14.80;;;;;;;-6.05;58.19;99576.36;1744012;82;20989;-54
2022/03/12 00:03:53;;;;;;;41.58;16.42;;;;;;;-6.07;57.58;99574.31;1753377;80;21056;-54
2022/03/12 00:06:22;;;;;;;37.98;16.60;;;;;;;-6.10;58.20;99569.31;1752565;80;22098;-54
2022/03/12 00:08:51;;;;;;;46.35;18.23;;;;;;;-6.10;56.60;99564.53;1743853;81;21073;-54
2022/03/12 00:11:24;;;;;;;42.53;16.00;;;;;;;-6.09;57.22;99566.19;1744247;82;21452;-53
2022/03/12 00:13:51;;;;;;;71.90;25.85;;;;;;;-6.08;57.18;99563.90;1743353;81;21486;-54
2022/03/12 00:16:23;;;;;;;75.57;26.93;;;;;;;-6.04;56.00;99563.98;1744184;82;21463;-55
2022/03/12 00:18:53;;;;;;;98.42;36.83;;;;;;;-6.01;56.89;99560.58;1743533;82;21046;-54
2022/03/12 00:21:22;;;;;;;107.43;37.80;;;;;;;-6.02;58.96;99560.23;1746063;80;21014;-55
2022/03/12 00:23:49;;;;;;;107.15;40.88;;;;;;;-6.01;56.74;99559.75;1752833;80;21022;-55
2022/03/12 00:26:18;;;;;;;92.15;32.65;;;;;;;-6.04;56.22;99558.71;1759779;80;21427;-55
2022/03/12 00:28:45;;;;;;;;;;;;;;;-6.04;56.62;99562.67;1769288;80;21026;-55
2022/03/12 00:31:12;;;;;;;139.00;44.67;;;;;;;-6.05;56.53;99561.01;1744421;82;21293;-55
2022/03/12 00:33:38;;;;;;;120.92;42.03;;;;;;;-6.06;56.39;99553.58;1743969;81;21387;-55
2022/03/12 00:36:06;;;;;;;103.75;41.95;;;;;;;-6.05;56.28;99554.41;1744204;82;21471;-54
2022/03/12 00:38:33;;;;;;;88.45;34.35;;;;;;;-6.07;56.55;99558.96;1744189;81;21003;-55
2022/03/12 00:41:04;;;;;;;120.13;39.88;;;;;;;-6.12;57.62;99562.52;1746688;80;21005;-54
2022/03/12 00:43:31;;;;;;;92.12;36.58;;;;;;;-6.14;57.88;99558.70;1743759;82;22130;-54
2022/03/12 00:45:58;;;;;;;99.55;39.08;;;;;;;-6.15;56.83;99553.53;1745966;81;20982;-55
2022/03/12 00:48:25;;;;;;;85.87;32.95;;;;;;;-6.23;59.86;99558.68;1747487;80;21002;-53
2022/03/12 00:50:52;;;;;;;64.75;22.15;;;;;;;-6.25;59.38;99546.92;1762069;80;20978;-54
2022/03/12 00:53:18;;;;;;;96.55;38.25;;;;;;;-6.22;56.96;99550.63;1744100;82;20963;-55
2022/03/12 00:55:45;;;;;;;99.22;38.70;;;;;;;-6.28;60.38;99544.08;1743792;82;22058;-54
2022/03/12 00:58:12;;;;;;;68.57;30.70;;;;;;;-6.31;59.17;99547.48;1744027;81;21006;-54
2022/03/12 01:00:39;;;;;;;64.12;27.25;;;;;;;-6.40;61.10;99546.48;1743823;82;21048;-54
2022/03/12 01:03:06;;;;;;;60.58;27.52;;;;;;;-6.44;57.88;99535.84;1744104;81;21022;-54
2022/03/12 01:05:53;;;;;;;69.72;29.48;;;;;;;-6.50;59.55;99542.13;1745622;81;21022;-55
2022/03/12 01:08:23;;;;;;;84.30;30.35;;;;;;;-6.51;58.25;99536.02;1744200;81;21597;-54
2022/03/12 01:10:50;;;;;;;101.60;36.55;;;;;;;-6.53;58.73;99532.69;1743778;82;21069;-55
2022/03/12 01:13:17;;;;;;;84.15;32.25;;;;;;;-6.49;57.74;99526.20;1744209;81;21023;-54
2022/03/12 01:15:43;;;;;;;141.47;66.47;;;;;;;-6.49;57.48;99534.11;1743970;82;21434;-54
2022/03/12 01:18:13;;;;;;;84.58;33.33;;;;;;;-6.52;61.24;99534.36;1744053;81;21041;-54
2022/03/12 01:20:40;;;;;;;82.65;32.05;;;;;;;-6.54;61.95;99523.95;1743919;82;20987;-55
2022/03/12 01:23:13;;;;;;;77.67;29.52;;;;;;;-6.51;59.11;99523.31;1744142;81;20986;-53
2022/03/12 01:25:41;;;;;;;75.35;27.98;;;;;;;-6.49;58.91;99522.69;1744046;82;20954;-54
2022/03/12 01:28:09;;;;;;;86.10;35.43;;;;;;;-6.49;60.47;99525.33;1744478;80;21416;-53
2022/03/12 01:30:36;;;;;;;91.10;31.60;;;;;;;-6.43;58.86;99528.27;1744173;82;20966;-54
2022/03/12 01:33:03;;;;;;;81.70;33.30;;;;;;;-6.42;59.24;99531.25;1744091;81;21505;-55
2022/03/12 01:35:31;;;;;;;86.67;34.75;;;;;;;-6.42;59.01;99529.94;1743793;82;20967;-54
2022/03/12 01:37:58;;;;;;;76.17;27.90;;;;;;;-6.41;58.62;99524.17;1744212;82;20970;-55
2022/03/12 01:40:26;;;;;;;34.08;14.90;;;;;;;-6.41;58.28;99526.36;1762643;80;21041;-54
2022/03/12 01:42:52;;;;;;;73.17;31.82;;;;;;;-6.36;58.06;99528.57;1744147;81;21418;-54
2022/03/12 01:45:29;;;;;;;65.78;29.52;;;;;;;-6.41;58.50;99530.31;1746496;80;21422;-54
2022/03/12 01:48:02;;;;;;;56.73;23.95;;;;;;;-6.43;58.67;99528.27;1744039;82;20971;-53
2022/03/12 01:50:36;;;;;;;62.55;24.20;;;;;;;-6.43;58.63;99531.39;1755304;80;21001;-55
2022/03/12 01:53:07;;;;;;;76.50;29.90;;;;;;;-6.47;59.85;99544.52;1774841;80;22036;-56
2022/03/12 01:55:39;;;;;;;61.75;26.77;;;;;;;-6.48;59.00;99538.89;1762073;80;21139;-54
2022/03/12 01:58:03;;;;;;;66.40;25.92;;;;;;;-6.46;58.58;99536.46;1743673;81;21766;-55
2022/03/12 02:00:45;;;;;;;47.58;19.80;;;;;;;-6.42;58.80;99537.02;1743845;82;20962;-54
2022/03/12 02:03:15;;;;;;;65.05;25.27;;;;;;;-6.36;58.13;99532.04;1723489;82;20994;-54
2022/03/12 02:05:42;;;;;;;69.05;29.23;;;;;;;-6.34;58.43;99536.69;1743782;82;21446;-54
2022/03/12 02:08:13;;;;;;;82.25;31.30;;;;;;;-6.38;58.41;99530.03;1744133;81;21014;-54
2022/03/12 02:10:40;;;;;;;79.58;30.48;;;;;;;-6.41;58.42;99529.45;1743683;82;21388;-54
2022/03/12 02:13:07;;;;;;;65.28;26.85;;;;;;;-6.47;58.68;99532.16;1744011;82;21430;-54
2022/03/12 02:15:34;;;;;;;29.02;13.03;;;;;;;-6.55;59.26;99532.00;1750252;80;21032;-54
2022/03/12 02:18:01;;;;;;;60.25;23.55;;;;;;;-6.57;59.40;99532.14;1774894;80;20985;-55
2022/03/12 02:20:28;;;;;;;26.60;13.32;;;;;;;-6.59;59.68;99527.45;1744880;80;21034;-53
2022/03/12 02:22:55;;;;;;;62.58;25.90;;;;;;;-6.55;59.97;99526.23;1744060;81;21475;-55
2022/03/12 02:25:29;;;;;;;56.18;21.50;;;;;;;-6.58;59.86;99523.88;1766302;80;20983;-55
2022/03/12 02:27:57;;;;;;;62.50;23.95;;;;;;;-6.64;60.26;99528.36;1750886;80;21300;-55
2022/03/12 02:30:34;;;;;;;49.40;22.90;;;;;;;-6.74;60.35;99530.13;1744018;82;21006;-55
2022/03/12 02:32:58;;;;;;;54.90;22.98;;;;;;;-6.75;60.38;99526.28;1743330;81;20955;-54
2022/03/12 02:35:25;;;;;;;48.17;17.30;;;;;;;-6.70;60.12;99524.93;1744057;82;21359;-55
2022/03/12 02:37:52;;;;;;;53.30;22.87;;;;;;;-6.65;59.91;99527.18;1744119;82;20970;-54
2022/03/12 02:40:20;;;;;;;69.90;29.90;;;;;;;-6.63;59.68;99524.75;1744016;82;21423;-55
2022/03/12 02:42:48;;;;;;;65.45;29.30;;;;;;;-6.60;59.61;99524.95;1744172;81;21713;-55
2022/03/12 02:45:15;;;;;;;74.47;33.10;;;;;;;-6.58;59.47;99528.28;1744146;82;21537;-56
2022/03/12 02:47:43;;;;;;;70.25;33.58;;;;;;;-6.63;61.28;99530.51;1743889;81;21481;-55
2022/03/12 02:50:11;;;;;;;50.30;21.68;;;;;;;-6.64;60.34;99531.00;1748971;80;21433;-55
2022/03/12 02:52:41;;;;;;;52.97;20.13;;;;;;;-6.63;59.93;99529.19;1774705;80;21453;-53
2022/03/12 02:55:14;;;;;;;53.00;22.90;;;;;;;-6.63;59.37;99523.92;1749195;80;21033;-54
2022/03/12 02:57:43;;;;;;;37.67;13.83;;;;;;;-6.66;59.44;99525.52;1743765;82;21518;-54
2022/03/12 03:00:10;;;;;;;;;;;;;;;-6.64;59.11;99531.48;1746598;81;21014;-53
2022/03/12 03:02:41;;;;;;;40.70;16.48;;;;;;;-6.70;59.06;99529.37;1743910;81;20159;-54
2022/03/12 03:05:23;;;;;;;36.55;15.45;;;;;;;-6.70;59.05;99531.52;1743905;82;20990;-53
2022/03/12 03:07:54;;;;;;;60.90;25.12;;;;;;;-6.76;59.15;99529.89;1741337;81;21387;-54
2022/03/12 03:10:35;;;;;;;;;;;;;;;-6.84;59.54;99527.42;1745956;82;21038;-55
2022/03/12 03:13:16;;;;;;;42.80;18.57;;;;;;;-6.89;59.64;99522.22;1733393;81;21336;-52
2022/03/12 03:15:47;;;;;;;29.72;11.48;;;;;;;-6.93;59.74;99524.27;1743549;81;21413;-54
2022/03/12 03:18:15;;;;;;;41.83;17.52;;;;;;;-6.91;59.52;99518.41;1743912;82;21012;-54
2022/03/12 03:20:43;;;;;;;40.25;18.77;;;;;;;-6.94;59.82;99518.66;1755845;80;26783;-52
2022/03/12 03:23:10;;;;;;;22.80;12.60;;;;;;;-6.93;59.75;99522.95;1773901;80;21029;-54
2022/03/12 03:25:37;;;;;;;46.92;21.17;;;;;;;-6.89;59.67;99527.50;1750844;80;21246;-54
2022/03/12 03:28:07;;;;;;;45.80;18.60;;;;;;;-6.90;59.57;99521.39;1728164;82;20972;-53
2022/03/12 03:30:39;;;;;;;41.55;18.92;;;;;;;-6.88;59.81;99517.30;1753171;81;20990;-53
2022/03/12 03:33:08;;;;;;;34.23;13.88;;;;;;;-6.85;59.47;99524.45;1744018;81;20997;-52
2022/03/12 03:35:35;;;;;;;37.98;18.75;;;;;;;-6.82;59.30;99516.78;1745990;80;21061;-54
2022/03/12 03:38:01;;;;;;;32.95;15.38;;;;;;;-6.85;59.25;99516.54;1744079;81;21473;-54
2022/03/12 03:40:28;;;;;;;39.88;15.55;;;;;;;-6.83;59.26;99521.22;1750107;80;21067;-54
2022/03/12 03:42:55;;;;;;;31.60;16.00;;;;;;;-6.82;59.18;99521.56;1744016;82;21416;-54
2022/03/12 03:45:27;;;;;;;38.38;17.23;;;;;;;-6.79;59.15;99518.30;1749944;80;21419;-54
2022/03/12 03:47:55;;;;;;;34.03;14.13;;;;;;;-6.77;58.98;99517.68;1774622;80;21005;-55
2022/03/12 03:50:25;;;;;;;41.45;16.45;;;;;;;-6.78;59.06;99522.61;1746157;80;21419;-55
2022/03/12 03:52:56;;;;;;;44.53;18.20;;;;;;;-6.75;59.06;99524.97;1743896;81;21018;-54
2022/03/12 03:55:27;;;;;;;42.83;15.15;;;;;;;-6.75;58.98;99524.97;1743566;82;20974;-54
2022/03/12 03:57:54;;;;;;;38.15;20.08;;;;;;;-6.75;58.66;99527.15;1744067;81;21006;-54
2022/03/12 04:00:24;;;;;;;43.98;17.05;;;;;;;-6.76;58.75;99532.05;1743883;82;21423;-54
2022/03/12 04:03:02;;;;;;;42.58;18.12;;;;;;;-6.79;58.62;99527.05;1743993;82;22057;-54
2022/03/12 04:05:34;;;;;;;44.40;15.70;;;;;;;-6.84;58.43;99525.28;1743939;82;20967;-54
2022/03/12 04:08:06;;;;;;;36.10;17.80;;;;;;;-6.89;58.59;99533.60;1744008;81;21014;-54
2022/03/12 04:10:32;;;;;;;38.38;15.58;;;;;;;-6.88;58.95;99532.62;1737040;81;20970;-54
2022/03/12 04:12:59;;;;;;;34.03;13.78;;;;;;;-6.89;58.70;99532.77;1744193;81;21399;-54
2022/03/12 04:15:25;;;;;;;33.28;15.48;;;;;;;-6.92;58.48;99530.38;1744030;82;21313;-53
2022/03/12 04:17:54;;;;;;;33.48;13.60;;;;;;;-6.98;58.76;99532.24;1743827;81;21430;-53
2022/03/12 04:20:22;;;;;;;30.30;14.70;;;;;;;-7.00;58.95;99534.18;1747654;80;21042;-54
2022/03/12 04:22:51;;;;;;;11.30;6.70;;;;;;;-6.97;59.02;99539.17;1775190;80;20950;-53
2022/03/12 04:25:20;;;;;;;30.02;13.18;;;;;;;-6.97;58.83;99532.11;1746976;80;20970;-53
2022/03/12 04:27:47;;;;;;;;;;;;;;;-7.03;58.89;99529.16;1746793;81;21430;-53
2022/03/12 04:30:18;;;;;;;17.00;9.10;;;;;;;-7.07;59.08;99523.81;1744085;82;20659;-53
2022/03/12 04:32:45;;;;;;;28.35;13.55;;;;;;;-7.10;59.21;99521.76;1744008;81;21025;-54
2022/03/12 04:35:13;;;;;;;36.40;13.70;;;;;;;-7.12;59.32;99523.70;1744152;81;21062;-54
2022/03/12 04:37:40;;;;;;;33.35;12.78;;;;;;;-7.07;59.21;99522.00;1744228;81;21034;-53
2022/03/12 04:40:11;;;;;;;13.40;5.83;;;;;;;-6.99;58.97;99534.53;1743892;82;21980;-53
2022/03/12 04:42:38;;;;;;;30.32;12.25;;;;;;;-6.93;58.82;99531.34;1742940;81;21030;-54
2022/03/12 04:45:09;;;;;;;25.40;8.00;;;;;;;-6.90;58.85;99529.78;1746420;80;20958;-54
2022/03/12 04:47:36;;;;;;;26.62;12.05;;;;;;;-6.83;58.58;99534.88;1744084;82;21026;-54
2022/03/12 04:50:05;;;;;;;33.13;12.78;;;;;;;-6.84;58.75;99530.55;1744157;82;21034;-54
2022/03/12 04:52:32;;;;;;;17.17;7.45;;;;;;;-6.82;58.46;99532.11;1743809;82;22169;-54
2022/03/12 04:54:59;;;;;;;29.55;13.72;;;;;;;-6.82;58.39;99530.79;1756672;81;20959;-54
2022/03/12 04:57:26;;;;;;;30.25;12.43;;;;;;;-6.86;58.55;99533.33;1700421;82;21018;-54
2022/03/12 04:59:53;;;;;;;29.45;12.63;;;;;;;-6.84;58.52;99531.87;1741352;80;20934;-52
2022/03/12 05:02:19;;;;;;;16.27;6.20;;;;;;;-6.80;58.78;99527.19;1772703;80;20973;-53
2022/03/12 05:04:49;;;;;;;27.15;13.90;;;;;;;-6.76;58.26;99533.84;1753614;80;22103;-55
2022/03/12 05:07:16;;;;;;;29.80;14.53;;;;;;;-6.79;58.29;99534.13;1743880;81;21045;-53
2022/03/12 05:09:44;;;;;;;25.52;14.00;;;;;;;-6.79;58.58;99532.31;1764825;80;21359;-53
2022/03/12 05:12:11;;;;;;;27.37;11.68;;;;;;;-6.77;58.43;99530.86;1747312;80;20993;-54
2022/03/12 05:14:38;;;;;;;32.23;13.68;;;;;;;-6.77;58.43;99533.02;1762569;80;20953;-54
2022/03/12 05:17:08;;;;;;;26.12;13.38;;;;;;;-6.74;58.07;99531.94;1743582;81;21431;-53
2022/03/12 05:19:36;;;;;;;50.98;17.70;;;;;;;-6.75;58.31;99524.52;1744010;82;20997;-53
2022/03/12 05:22:05;;;;;;;15.18;6.78;;;;;;;-6.76;58.32;99530.73;1746635;81;25910;-52
2022/03/12 05:24:32;;;;;;;34.63;17.62;;;;;;;-6.76;58.08;99528.09;1744321;82;21431;-53
2022/03/12 05:26:59;;;;;;;40.08;16.00;;;;;;;-6.79;58.05;99526.22;1744014;81;21005;-54
2022/03/12 05:29:26;;;;;;;19.67;9.48;;;;;;;-6.83;58.34;99526.98;1744284;82;21438;-53
2022/03/12 05:31:53;;;;;;;38.80;14.50;;;;;;;-6.76;58.09;99533.84;1743902;81;21144;-53
2022/03/12 05:34:22;;;;;;;43.50;18.05;;;;;;;-6.75;58.12;99532.88;1744410;81;20955;-54
2022/03/12 05:36:50;;;;;;;44.45;18.77;;;;;;;-6.73;58.15;99536.23;1744345;81;20958;-55
2022/03/12 05:39:17;;;;;;;54.27;23.92;;;;;;;-6.70;58.11;99537.28;1744375;82;21443;-55
2022/03/12 05:41:44;;;;;;;36.00;17.02;;;;;;;-6.67;58.09;99542.28;1743938;81;21429;-55
2022/03/12 05:44:14;;;;;;;37.25;18.92;;;;;;;-6.64;57.96;99538.91;1744126;82;20981;-54
2022/03/12 05:46:42;;;;;;;35.38;14.25;;;;;;;-6.65;57.88;99540.36;1749870;80;20978;-54
2022/03/12 05:49:09;;;;;;;48.25;19.60;;;;;;;-6.61;57.77;99538.63;1744282;81;21053;-54
2022/03/12 05:51:36;;;;;;;32.95;18.27;;;;;;;-6.62;57.73;99542.23;1743985;81;20983;-55
2022/03/12 05:54:04;;;;;;;31.25;13.68;;;;;;;-6.57;57.67;99544.48;1744187;82;21678;-55
2022/03/12 05:56:31;;;;;;;48.13;19.90;;;;;;;-6.56;57.59;99540.39;1746150;80;20990;-55
2022/03/12 05:58:57;;;;;;;42.17;14.93;;;;;;;-6.56;57.62;99543.52;1744359;82;21529;-54
2022/03/12 06:01:25;;;;;;;45.28;17.15;;;;;;;-6.57;58.07;99544.48;1747714;80;21052;-55
2022/03/12 06:03:53;;;;;;;32.73;15.45;;;;;;;-6.49;57.70;99542.47;1743831;82;20967;-54
2022/03/12 06:06:20;;;;;;;22.02;11.83;;;;;;;-6.40;57.60;99542.53;1744084;82;21437;-55
2022/03/12 06:08:46;;;;;;;19.40;9.48;;;;;;;-6.33;57.57;99544.95;1752485;80;20963;-56
2022/03/12 06:11:15;;;;;;;17.60;10.80;;;;;;;-6.21;57.49;99540.91;1755877;80;20959;-55
2022/03/12 06:13:59;;;;;;;33.30;16.27;;;;;;;-6.15;56.98;99535.05;1744172;82;20998;-55
2022/03/12 06:16:11;;;;;;;34.33;14.93;;;;;;;-6.09;56.86;99535.84;1740890;82;21034;-55
2022/03/12 06:18:39;;;;;;;38.45;15.72;;;;;;;-6.00;56.82;99536.33;1750606;80;21421;-54
2022/03/12 06:21:06;;;;;;;39.00;14.13;;;;;;;-5.91;56.91;99531.55;1757606;80;21018;-53
2022/03/12 06:23:33;;;;;;;34.85;14.75;;;;;;;-5.78;56.66;99529.94;1744035;81;20981;-55
2022/03/12 06:26:02;;;;;;;35.52;15.23;;;;;;;-5.69;56.48;99534.38;1744141;81;21275;-52
2022/03/12 06:28:29;;;;;;;30.25;14.95;;;;;;;-5.63;56.44;99521.95;1744322;82;20975;-54
2022/03/12 06:30:57;;;;;;;39.00;17.80;;;;;;;-5.50;56.29;99525.12;1743857;82;21440;-54
2022/03/12 06:33:26;;;;;;;26.27;11.85;;;;;;;-5.40;56.12;99523.78;1743937;81;20963;-54
2022/03/12 06:35:53;;;;;;;47.13;17.73;;;;;;;-5.25;56.06;99525.50;1744029;82;21038;-57
2022/03/12 06:38:20;;;;;;;42.45;19.52;;;;;;;-5.17;55.69;99526.95;1744033;81;21011;-54
2022/03/12 06:40:47;;;;;;;35.83;15.30;;;;;;;-5.08;55.47;99522.12;1755441;80;20978;-54
2022/03/12 06:43:19;;;;;;;39.15;17.77;;;;;;;-4.94;55.40;99517.70;1773546;80;21388;-54
2022/03/12 06:45:43;;;;;;;42.75;20.88;;;;;;;-4.87;55.17;99522.77;1751844;80;20934;-54
2022/03/12 06:48:10;;;;;;;33.58;14.38;;;;;;;-4.74;55.35;99521.59;1774034;80;21014;-52
2022/03/12 06:50:38;;;;;;;56.80;21.80;;;;;;;-4.59;54.71;99518.81;1744134;82;20981;-55
2022/03/12 06:53:06;;;;;;;68.62;35.83;;;;;;;-4.50;54.25;99516.61;1743998;81;21037;-54
2022/03/12 06:55:33;;;;;;;43.40;19.45;;;;;;;-4.40;54.10;99521.35;1743923;82;20978;-55
2022/03/12 06:58:00;;;;;;;118.47;52.20;;;;;;;-4.24;53.34;99526.00;1744110;82;21407;-55
2022/03/12 07:00:29;;;;;;;63.73;32.00;;;;;;;-4.11;53.12;99520.34;1743944;82;21049;-55
2022/03/12 07:02:56;;;;;;;38.25;16.37;;;;;;;-3.93;53.01;99519.02;1743660;81;20983;-55
2022/03/12 07:05:24;;;;;;;45.85;19.32;;;;;;;-3.77;52.58;99519.18;1744151;82;21038;-55
2022/03/12 07:07:50;;;;;;;59.73;33.78;;;;;;;-3.64;52.65;99525.44;1743971;81;22132;-55
2022/03/12 07:10:17;;;;;;;23.80;12.93;;;;;;;-3.47;52.16;99512.66;1765672;80;20986;-55
2022/03/12 07:12:46;;;;;;;42.45;27.15;;;;;;;-2.63;51.62;99519.50;1774600;80;21052;-56
2022/03/12 07:15:14;;;;;;;28.38;16.37;;;;;;;-1.63;50.29;99516.42;1754248;80;21006;-56
2022/03/12 07:17:41;;;;;;;28.35;14.80;;;;;;;-0.66;50.67;99521.33;1743808;81;21045;-56
2022/03/12 07:20:13;;;;;;;36.68;20.37;;;;;;;0.15;49.92;99518.77;1746316;80;21438;-56
2022/03/12 07:22:40;;;;;;;31.15;17.65;;;;;;;0.76;48.15;99511.13;1743497;82;21427;-55
2022/03/12 07:25:08;;;;;;;27.70;16.05;;;;;;;1.43;42.26;99513.47;1748004;80;20997;-56
2022/03/12 07:27:35;;;;;;;143.50;60.67;;;;;;;2.39;45.38;99507.82;1744124;82;21001;-56
2022/03/12 07:30:04;;;;;;;37.65;20.77;;;;;;;2.92;38.89;99510.17;1744226;82;20998;-55
2022/03/12 07:32:32;;;;;;;35.48;21.33;;;;;;;4.00;43.30;99513.55;1744239;82;22096;-55
2022/03/12 07:34:59;;;;;;;28.75;16.90;;;;;;;4.56;38.34;99511.13;1746488;80;21013;-56
2022/03/12 07:37:26;;;;;;;23.55;15.63;;;;;;;5.68;42.98;99508.34;1743884;81;21026;-57
2022/03/12 07:39:54;;;;;;;26.48;16.48;;;;;;;5.85;31.02;99507.34;1743918;82;47218;-56
2022/03/12 07:42:21;;;;;;;38.40;21.05;;;;;;;6.40;37.84;99501.81;1743621;81;21062;-56
2022/03/12 07:44:49;;;;;;;32.58;20.75;;;;;;;7.14;36.23;99496.17;1749869;80;21434;-57
2022/03/12 07:47:16;;;;;;;35.03;21.37;;;;;;;7.37;32.67;99497.42;1746641;80;21006;-57
2022/03/12 07:49:43;;;;;;;28.32;18.73;;;;;;;8.52;36.31;99494.23;1744139;81;20998;-57
2022/03/12 07:52:13;;;;;;;26.20;17.37;;;;;;;8.53;34.40;99496.41;1743902;82;21022;-56
2022/03/12 07:54:40;;;;;;;39.92;26.97;;;;;;;8.58;33.79;99485.75;1744338;82;21035;-57
2022/03/12 07:57:07;;;;;;;67.87;43.20;;;;;;;8.78;31.80;99485.44;1746113;80;22094;-57
2022/03/12 07:59:35;;;;;;;31.60;22.05;;;;;;;9.10;32.41;99488.13;1753213;80;21560;-57
2022/03/12 08:02:03;;;;;;;39.08;27.40;;;;;;;9.51;31.70;99487.17;1744589;81;21463;-57
2022/03/12 08:04:33;;;;;;;28.87;17.65;;;;;;;9.56;31.23;99487.80;1709724;82;21022;-57
2022/03/12 08:07:02;;;;;;;34.90;23.42;;;;;;;10.38;31.67;99482.19;1744281;81;20951;-57
2022/03/12 08:09:30;;;;;;;54.30;43.23;;;;;;;10.92;28.42;99485.29;1759233;80;21030;-57
2022/03/12 08:11:59;;;;;;;37.00;28.60;;;;;;;11.12;27.65;99483.45;1743907;81;21007;-57
2022/03/12 08:14:26;;;;;;;34.23;21.05;;;;;;;10.65;27.54;99488.64;1744090;82;20967;-57
2022/03/12 08:16:55;;;;;;;235.50;131.82;;;;;;;11.58;25.61;99495.26;1743768;81;21066;-57
2022/03/12 08:19:21;;;;;;;46.15;27.50;;;;;;;11.21;26.22;99486.04;1734906;80;20996;-57
2022/03/12 08:21:49;;;;;;;45.58;24.98;;;;;;;12.07;24.13;99489.95;1761779;80;22047;-57
2022/03/12 08:24:16;;;;;;;39.98;25.10;;;;;;;12.08;24.50;99482.63;1747228;80;21053;-57
2022/03/12 08:26:44;;;;;;;96.95;53.30;;;;;;;12.48;23.93;99484.16;1743616;82;21001;-57
2022/03/12 08:29:14;;;;;;;32.33;19.23;;;;;;;12.54;25.30;99477.66;1758137;80;21342;-57
2022/03/12 08:31:41;;;;;;;144.90;76.00;;;;;;;13.29;25.26;99467.71;1749780;80;21153;-57
2022/03/12 08:34:09;;;;;;;34.98;20.30;;;;;;;13.54;23.24;99461.06;1744384;81;21422;-57
2022/03/12 08:36:35;;;;;;;66.87;37.23;;;;;;;14.37;22.67;99470.11;1744191;81;21010;-57
2022/03/12 08:39:03;;;;;;;22.00;14.18;;;;;;;14.77;22.71;99458.99;1744296;82;20947;-57
2022/03/12 08:41:30;;;;;;;32.27;20.87;;;;;;;15.11;21.37;99458.45;1768732;80;20990;-57
2022/03/12 08:43:57;;;;;;;26.50;16.75;;;;;;;15.27;21.35;99451.87;1764253;80;21241;-57
2022/03/12 08:46:24;;;;;;;24.27;15.63;;;;;;;15.37;20.39;99453.77;1744190;82;22067;-57
2022/03/12 08:48:51;;;;;;;22.70;13.30;;;;;;;15.37;21.08;99448.30;1754988;80;21031;-57
2022/03/12 08:51:19;;;;;;;30.15;14.93;;;;;;;16.14;20.57;99449.69;1755773;80;20990;-58
2022/03/12 08:53:47;;;;;;;32.83;20.35;;;;;;;16.60;19.84;99456.27;1744130;81;21439;-58
2022/03/12 08:56:14;;;;;;;26.40;14.07;;;;;;;16.70;18.06;99456.22;1744218;82;20943;-57
2022/03/12 08:58:41;;;;;;;337.38;222.07;;;;;;;17.02;18.78;99457.07;1744053;81;21311;-57
2022/03/12 09:01:08;;;;;;;453.42;306.98;;;;;;;17.64;19.36;99450.42;1755787;80;20942;-57
2022/03/12 09:03:37;;;;;;;53.25;33.60;;;;;;;18.55;18.87;99447.89;1743728;82;20995;-57
2022/03/12 09:06:04;;;;;;;30.60;24.90;;;;;;;18.88;17.80;99452.05;1744383;82;20951;-57
2022/03/12 09:08:31;;;;;;;26.75;18.12;;;;;;;16.44;14.79;99450.08;1743953;81;21410;-57
2022/03/12 09:10:59;;;;;;;14.53;10.48;;;;;;;14.16;18.96;99451.23;1746166;80;21426;-57
2022/03/12 09:13:26;;;;;;;14.63;8.50;;;;;;;12.93;19.43;99457.90;1748295;80;21415;-57
2022/03/12 09:15:53;;;;;;;12.68;7.97;;;;;;;11.73;20.22;99450.39;1758059;80;21712;-56
2022/03/12 09:18:20;;;;;;;13.80;8.95;;;;;;;10.69;19.73;99455.10;1743101;81;20951;-56
2022/03/12 09:20:48;;;;;;;12.00;7.60;;;;;;;9.54;20.84;99447.98;1738103;80;21021;-57
2022/03/12 09:23:17;;;;;;;8.88;6.08;;;;;;;8.11;18.66;99456.66;1742633;81;21247;-57
2022/03/12 09:25:46;;;;;;;9.13;5.55;;;;;;;7.89;21.15;99458.22;1746864;80;21049;-56
2022/03/12 09:28:13;;;;;;;12.58;7.65;;;;;;;7.40;20.89;99455.16;1742916;80;21028;-56
2022/03/12 09:30:40;;;;;;;8.85;6.05;;;;;;;7.07;21.99;99453.10;1753702;80;21002;-56
2022/03/12 09:33:08;;;;;;;9.33;6.03;;;;;;;6.26;21.64;99446.94;1743623;80;21005;-56
2022/03/12 09:35:35;;;;;;;6.95;4.30;;;;;;;6.26;21.64;99446.94;1744057;82;21323;-56
2022/03/12 09:38:03;;;;;;;9.63;5.90;;;;;;;5.79;22.10;99447.14;1744123;81;21026;-56
2022/03/12 09:40:30;;;;;;;22.07;12.35;;;;;;;5.50;22.63;99440.97;1748052;80;20975;-56
2022/03/12 09:42:57;;;;;;;11.93;6.03;;;;;;;5.49;23.29;99442.01;1743914;82;21058;-57
2022/03/12 09:45:24;;;;;;;11.38;6.15;;;;;;;5.47;23.38;99435.99;1746677;80;21478;-56
2022/03/12 09:47:51;;;;;;;17.62;7.17;;;;;;;5.40;23.91;99432.01;1743934;82;21305;-56
2022/03/12 09:50:18;;;;;;;10.03;5.55;;;;;;;5.30;23.90;99435.66;1743905;82;20986;-56
2022/03/12 09:52:45;;;;;;;13.72;6.90;;;;;;;5.26;23.88;99433.08;1743981;81;20997;-56
2022/03/12 09:55:12;;;;;;;16.73;7.87;;;;;;;5.21;24.22;99432.38;1744215;82;21057;-56
2022/03/12 09:57:39;;;;;;;14.50;7.22;;;;;;;5.14;24.16;99427.53;1744059;81;20956;-56
2022/03/12 10:00:08;;;;;;;18.30;8.40;;;;;;;5.09;24.22;99416.58;1763504;80;22115;-56
2022/03/12 10:02:35;;;;;;;13.85;6.45;;;;;;;5.00;24.39;99414.63;1774824;80;21430;-56
2022/03/12 10:05:03;;;;;;;10.65;5.90;;;;;;;4.80;22.97;99413.84;1772282;80;20966;-56
2022/03/12 10:07:30;;;;;;;11.73;6.20;;;;;;;4.87;24.55;99411.98;1774811;80;21455;-56
2022/03/12 10:09:57;;;;;;;10.78;5.85;;;;;;;4.91;24.51;99405.14;1772550;80;21091;-56
2022/03/12 10:12:24;;;;;;;12.10;6.47;;;;;;;4.91;24.52;99401.63;1770065;80;21397;-57
2022/03/12 10:14:51;;;;;;;11.03;5.58;;;;;;;4.96;24.31;99398.64;1745106;80;20999;-56
2022/03/12 10:17:18;;;;;;;19.95;10.18;;;;;;;4.99;24.53;99394.70;1743874;81;21057;-56
2022/03/12 10:19:46;;;;;;;13.05;7.12;;;;;;;5.02;24.46;99392.41;1744075;82;20993;-56
2022/03/12 10:22:14;;;;;;;14.38;5.72;;;;;;;5.06;24.70;99385.59;1765842;80;21033;-56
2022/03/12 10:24:41;;;;;;;12.95;6.60;;;;;;;5.03;24.36;99385.16;1744470;80;21285;-55
2022/03/12 10:27:09;;;;;;;11.53;4.92;;;;;;;4.99;24.17;99387.98;1743956;80;21065;-57
2022/03/12 10:29:36;;;;;;;10.78;5.87;;;;;;;5.01;24.95;99384.03;1744044;82;21040;-56
2022/03/12 10:32:25;;;;;;;12.95;5.85;;;;;;;4.95;23.96;99374.64;1744002;81;20990;-56
2022/03/12 10:34:55;;;;;;;9.03;5.25;;;;;;;4.90;23.81;99368.58;1735846;82;21033;-56
2022/03/12 10:37:28;;;;;;;11.97;6.58;;;;;;;4.89;24.42;99371.48;1744050;82;21012;-56
2022/03/12 10:40:11;;;;;;;11.33;6.92;;;;;;;4.86;24.62;99369.19;1746103;80;21067;-56
2022/03/12 10:42:56;;;;;;;10.38;5.97;;;;;;;4.89;24.97;99357.53;1743479;82;20972;-56
2022/03/12 10:45:25;;;;;;;15.48;8.55;;;;;;;4.97;24.98;99350.59;1757040;80;21033;-56
2022/03/12 10:47:56;;;;;;;;;;;;;;;5.05;24.84;99349.02;1752752;80;20994;-56
2022/03/12 10:50:27;;;;;;;12.88;6.28;;;;;;;5.10;24.06;99351.05;1743789;82;21099;-56
2022/03/12 10:52:55;;;;;;;19.27;10.32;;;;;;;5.09;24.59;99346.20;1755619;80;21009;-56
2022/03/12 10:55:30;;;;;;;11.43;8.03;;;;;;;5.18;24.24;99344.62;1746181;80;20998;-56
2022/03/12 10:58:23;;;;;;;14.98;5.85;;;;;;;5.26;24.33;99342.52;1754560;80;20985;-56
2022/03/12 11:00:53;;;;;;;11.43;6.75;;;;;;;5.40;24.85;99341.12;1760917;80;20974;-56
2022/03/12 11:03:22;;;;;;;12.58;6.80;;;;;;;5.43;24.47;99329.94;1743076;80;21020;-55
2022/03/12 11:05:50;;;;;;;;;;;;;;;5.44;24.35;99343.16;1746257;82;20975;-56
2022/03/12 11:08:26;;;;;;;10.23;5.28;;;;;;;5.53;24.27;99336.48;1745110;80;20158;-56
2022/03/12 11:10:58;;;;;;;15.95;6.03;;;;;;;5.60;23.90;99331.91;1770703;80;21453;-57
2022/03/12 11:13:43;;;;;;;15.05;5.65;;;;;;;5.74;24.67;99328.63;1770269;80;21414;-55
2022/03/12 11:16:35;;;;;;;10.72;5.90;;;;;;;5.83;24.18;99326.50;1748902;80;21345;-56
2022/03/12 11:19:10;;;;;;;12.33;5.80;;;;;;;5.89;24.68;99322.92;1749454;80;21015;-56
2022/03/12 11:21:52;;;;;;;11.33;6.47;;;;;;;5.79;23.07;99314.52;1743728;81;21458;-57
2022/03/12 11:24:28;;;;;;;14.83;7.12;;;;;;;5.76;23.73;99313.61;1742002;82;20986;-57
2022/03/12 11:26:58;;;;;;;16.00;7.92;;;;;;;5.85;23.88;99308.27;1749987;80;21068;-57
2022/03/12 11:29:27;;;;;;;25.92;11.30;;;;;;;5.80;23.57;99309.44;1743699;82;21068;-56